Time;durP1;ratioP1;P1;durP2;ratioP2;P2;SDS_P1;SDS_P2;PMS_P1;PMS_P2;Temp;Humidity;BMP_temperature;BMP_pressure;BME280_temperature;BME280_humidity;BME280_pressure;Samples;Min_cycle;Max_cycle;Signal;HPM_P1;HPM_P2
2022/01/10 00:01:55;;;;;;;2.70;1.70;;;;;;;20.42;33.91;98570.97;5009400;28;20046;-53
2022/01/10 00:04:20;;;;;;;2.35;1.60;;;;;;;20.41;33.82;98572.19;5009285;28;20046;-54
2022/01/10 00:06:46;;;;;;;2.67;1.67;;;;;;;20.42;33.94;98570.97;5009224;28;20129;-54
2022/01/10 00:09:11;;;;;;;2.30;1.52;;;;;;;20.41;34.07;98563.84;5009315;28;20446;-53
2022/01/10 00:11:36;;;;;;;2.65;1.50;;;;;;;20.42;34.09;98559.88;5009151;28;20053;-53
2022/01/10 00:14:02;;;;;;;2.63;1.55;;;;;;;20.42;33.85;98565.44;5009304;28;20054;-53
2022/01/10 00:16:27;;;;;;;2.13;1.33;;;;;;;20.42;34.08;98557.09;5009119;28;20138;-54
2022/01/10 00:18:53;;;;;;;2.28;1.50;;;;;;;20.42;34.06;98576.53;5008635;28;20100;-60
2022/01/10 00:21:18;;;;;;;2.17;1.50;;;;;;;20.41;34.02;98564.63;5009217;28;20058;-60
2022/01/10 00:23:44;;;;;;;2.25;1.50;;;;;;;20.42;33.95;98559.88;5090727;28;20040;-60
2022/01/10 00:26:10;;;;;;;2.80;1.50;;;;;;;20.41;34.11;98559.09;5111739;28;20400;-60
2022/01/10 00:28:35;;;;;;;2.38;1.42;;;;;;;20.42;34.00;98559.88;5111628;28;20565;-60
2022/01/10 00:31:00;;;;;;;2.22;1.50;;;;;;;20.42;33.86;98554.31;5111668;28;20066;-60
2022/01/10 00:33:26;;;;;;;2.20;1.52;;;;;;;20.42;33.94;98555.09;5111694;28;20031;-60
2022/01/10 00:35:51;;;;;;;2.88;1.42;;;;;;;20.42;33.88;98557.09;5111712;28;20454;-60
2022/01/10 00:38:17;;;;;;;2.50;1.65;;;;;;;20.42;34.06;98548.75;5111295;28;20093;-60
2022/01/10 00:40:42;;;;;;;2.30;1.60;;;;;;;20.42;33.89;98546.00;5111764;28;20036;-60
2022/01/10 00:43:17;;;;;;;2.38;1.45;;;;;;;20.42;33.87;98544.00;5111541;28;20518;-57
2022/01/10 00:45:42;;;;;;;2.50;1.50;;;;;;;20.42;33.90;98548.75;5111537;28;20046;-54
2022/01/10 00:48:08;;;;;;;1.77;1.25;;;;;;;20.42;33.94;98548.75;5111157;28;20134;-54
2022/01/10 00:50:33;;;;;;;1.95;1.30;;;;;;;20.42;33.97;98546.78;5111302;28;20044;-54
2022/01/10 00:53:00;;;;;;;2.10;1.40;;;;;;;20.41;33.91;98547.97;5111464;28;20043;-54
2022/01/10 00:55:26;;;;;;;1.80;1.35;;;;;;;20.41;33.85;98552.72;5111214;28;20044;-55
2022/01/10 00:57:51;;;;;;;1.80;1.20;;;;;;;20.41;33.88;98552.72;5110969;28;20072;-60
2022/01/10 01:00:17;;;;;;;2.20;1.40;;;;;;;20.42;33.82;98546.00;5111139;28;20403;-54
2022/01/10 01:02:43;;;;;;;2.20;1.38;;;;;;;20.41;33.84;98542.41;5111064;28;20408;-54
2022/01/10 01:05:12;;;;;;;1.77;1.20;;;;;;;20.40;33.89;98545.59;5110915;28;20978;-54
2022/01/10 01:07:38;;;;;;;1.90;1.30;;;;;;;20.41;33.99;98549.94;5109961;28;20101;-54
2022/01/10 01:11:21;;;;;;;2.22;1.40;;;;;;;20.41;33.98;98552.72;5111151;28;20110;-54
2022/01/10 01:15:20;;;;;;;1.63;1.20;;;;;;;20.40;33.87;98562.25;5111106;28;20043;-54
2022/01/10 01:17:59;;;;;;;1.98;1.20;;;;;;;20.41;33.98;98572.19;5110796;28;20500;-54
2022/01/10 01:25:54;;;;;;;2.33;1.40;;;;;;;20.41;33.81;98578.53;5111038;28;20065;-52
2022/01/10 01:28:20;;;;;;;2.15;1.30;;;;;;;20.39;34.03;98578.13;5110633;28;20047;-53
2022/01/10 01:30:46;;;;;;;2.00;1.30;;;;;;;20.40;33.80;98588.06;5110707;28;20044;-60
2022/01/10 01:33:13;;;;;;;2.25;1.20;;;;;;;20.40;34.01;98584.47;5110594;28;20098;-60
2022/01/10 01:35:39;;;;;;;1.85;1.30;;;;;;;20.41;33.86;98586.06;5110638;28;20145;-60
2022/01/10 01:38:06;;;;;;;2.00;1.30;;;;;;;20.41;33.93;98591.63;5110178;28;20127;-60
2022/01/10 01:40:33;;;;;;;2.30;1.30;;;;;;;20.41;34.00;98592.41;5110318;28;20126;-54
2022/01/10 01:42:58;;;;;;;1.90;1.20;;;;;;;20.41;33.98;98599.94;5110459;28;20040;-53
2022/01/10 01:45:42;;;;;;;2.25;1.20;;;;;;;20.40;34.02;98598.38;5110707;28;20043;-54
2022/01/10 01:48:08;;;;;;;1.80;1.20;;;;;;;20.41;34.04;98597.97;5107359;28;20042;-53
2022/01/10 01:50:34;;;;;;;1.95;1.35;;;;;;;20.41;33.93;98605.50;5110469;28;20127;-54
2022/01/10 01:52:59;;;;;;;1.88;1.30;;;;;;;20.40;33.84;98610.25;5110516;28;20546;-54
2022/01/10 01:55:25;;;;;;;2.00;1.48;;;;;;;20.39;33.93;98605.91;5110327;28;20093;-54
2022/01/10 01:57:51;;;;;;;1.80;1.10;;;;;;;20.38;33.91;98604.31;5109767;28;20090;-54
2022/01/10 02:00:19;;;;;;;1.98;1.20;;;;;;;20.39;33.99;98599.56;5109990;28;20431;-60
2022/01/10 02:02:46;;;;;;;1.60;1.02;;;;;;;20.40;34.01;98603.91;5110157;28;20087;-60
2022/01/10 02:05:12;;;;;;;2.40;1.50;;;;;;;20.40;34.02;98595.59;5110133;28;20043;-60
2022/01/10 02:07:37;;;;;;;1.67;1.00;;;;;;;20.39;34.20;98599.56;5109877;28;20402;-60
2022/01/10 02:10:04;;;;;;;1.90;1.30;;;;;;;20.41;34.02;98603.53;5110103;28;20045;-60
2022/01/10 02:12:30;;;;;;;2.00;1.30;;;;;;;20.41;34.01;98597.97;5109833;28;20046;-60
2022/01/10 02:14:55;;;;;;;1.70;1.23;;;;;;;20.40;34.10;98590.03;5108850;28;20052;-60
2022/01/10 02:17:23;;;;;;;2.00;1.30;;;;;;;20.40;34.00;98601.94;5109435;28;20055;-60
2022/01/10 02:19:58;;;;;;;1.83;1.10;;;;;;;20.40;34.12;98601.13;5109551;28;20060;-60
2022/01/10 02:22:24;;;;;;;2.00;1.40;;;;;;;20.41;34.21;98605.50;5109916;28;20469;-60
2022/01/10 02:24:49;;;;;;;2.30;1.20;;;;;;;20.41;34.08;98609.06;5109826;28;20532;-60
2022/01/10 02:27:15;;;;;;;2.05;1.35;;;;;;;20.41;33.93;98611.06;5109514;28;20078;-60
2022/01/10 02:29:40;;;;;;;1.75;1.20;;;;;;;20.40;34.06;98607.50;5109855;28;20063;-60
2022/01/10 02:32:06;;;;;;;2.28;1.40;;;;;;;20.39;33.96;98607.88;5109672;28;20052;-60
2022/01/10 02:34:32;;;;;;;1.90;1.33;;;;;;;20.42;34.00;98618.19;5109949;28;20415;-61
2022/01/10 02:36:59;;;;;;;1.90;1.40;;;;;;;20.41;33.96;98619.41;5109899;28;20044;-55
2022/01/10 02:39:24;;;;;;;2.15;1.50;;;;;;;20.41;34.03;98613.84;5109351;28;20067;-54
2022/01/10 02:41:50;;;;;;;2.40;1.73;;;;;;;20.41;33.96;98613.84;5109596;28;20081;-55
2022/01/10 02:44:17;;;;;;;1.88;1.30;;;;;;;20.40;33.98;98618.59;5109579;28;20042;-54
2022/01/10 02:46:44;;;;;;;2.33;1.60;;;;;;;20.39;33.97;98619.78;5109303;28;20081;-54
2022/01/10 02:49:30;;;;;;;1.88;1.27;;;;;;;20.40;34.10;98617.81;5109501;28;20044;-54
2022/01/10 02:51:57;;;;;;;2.20;1.52;;;;;;;20.40;34.06;98610.25;5108676;28;20051;-60
2022/01/10 02:54:23;;;;;;;3.50;1.70;;;;;;;20.39;34.19;98611.47;5109322;28;20121;-60
2022/01/10 02:56:52;;;;;;;2.47;1.73;;;;;;;20.40;34.19;98612.25;5109377;28;20562;-60
2022/01/10 02:59:19;;;;;;;2.42;1.65;;;;;;;20.41;34.18;98608.28;5108787;28;20055;-54
2022/01/10 03:01:45;;;;;;;2.20;1.52;;;;;;;20.38;34.10;98601.53;5109270;28;20415;-54
2022/01/10 03:04:12;;;;;;;2.17;1.50;;;;;;;20.40;34.19;98615.03;5109120;28;20039;-54
2022/01/10 03:06:38;;;;;;;2.38;1.50;;;;;;;20.40;34.19;98612.25;5108858;28;20040;-53
2022/01/10 03:09:06;;;;;;;2.20;1.50;;;;;;;20.40;34.21;98615.03;5108830;28;20055;-55
2022/01/10 03:11:32;;;;;;;2.50;1.70;;;;;;;20.39;33.72;98614.22;5109257;28;20071;-54
2022/01/10 03:13:58;;;;;;;2.55;1.70;;;;;;;20.40;33.96;98615.81;5108973;28;20081;-55
2022/01/10 03:16:24;;;;;;;2.00;1.40;;;;;;;20.38;34.07;98618.22;5089434;28;20044;-55
2022/01/10 03:18:49;;;;;;;2.00;1.40;;;;;;;20.40;33.99;98615.03;5108788;28;20039;-54
2022/01/10 03:21:19;;;;;;;2.25;1.48;;;;;;;20.40;34.16;98612.25;5109401;28;20661;-54
2022/01/10 03:23:45;;;;;;;2.00;1.40;;;;;;;20.39;34.14;98610.66;5108820;28;20040;-54
2022/01/10 03:26:10;;;;;;;2.10;1.58;;;;;;;20.39;33.91;98610.66;5108689;28;20080;-54
2022/01/10 03:28:35;;;;;;;2.05;1.40;;;;;;;20.40;34.17;98610.25;5108107;28;20566;-54
2022/01/10 03:31:01;;;;;;;2.20;1.40;;;;;;;20.39;33.95;98616.22;5109203;28;20059;-54
2022/01/10 03:33:26;;;;;;;2.10;1.50;;;;;;;20.38;33.93;98620.19;5108718;28;20569;-60
2022/01/10 03:35:52;;;;;;;2.22;1.33;;;;;;;20.40;33.98;98620.59;5108753;28;20032;-60
2022/01/10 03:38:18;;;;;;;2.20;1.48;;;;;;;20.39;33.92;98625.34;5108505;28;20474;-54
2022/01/10 03:40:43;;;;;;;2.10;1.50;;;;;;;20.38;33.99;98620.19;5108297;28;20043;-55
2022/01/10 03:43:09;;;;;;;2.28;1.30;;;;;;;20.39;34.02;98622.56;5108887;28;20046;-55
2022/01/10 03:45:35;;;;;;;1.90;1.25;;;;;;;20.39;33.97;98621.78;5109003;28;20130;-54
2022/01/10 03:48:00;;;;;;;2.03;1.50;;;;;;;20.39;34.04;98622.56;5108498;28;20058;-55
2022/01/10 03:50:26;;;;;;;1.95;1.40;;;;;;;20.37;34.12;98616.63;5108385;28;20040;-55
2022/01/10 03:52:51;;;;;;;2.13;1.48;;;;;;;20.38;34.12;98623.75;5108770;28;20039;-54
2022/01/10 03:55:17;;;;;;;2.10;1.40;;;;;;;20.39;33.93;98619.78;5108607;28;20134;-55
2022/01/10 03:57:42;;;;;;;2.60;1.55;;;;;;;20.38;33.90;98620.97;5108348;28;20062;-53
2022/01/10 04:00:09;;;;;;;2.17;1.23;;;;;;;20.38;34.11;98626.53;5108422;28;20130;-54
2022/01/10 04:02:36;;;;;;;1.90;1.35;;;;;;;20.38;33.94;98626.53;5108408;28;20071;-54
2022/01/10 04:05:02;;;;;;;2.30;1.60;;;;;;;20.38;34.05;98622.97;5108271;28;20047;-54
2022/01/10 04:07:28;;;;;;;2.38;1.70;;;;;;;20.35;33.84;98627.31;5108082;28;20043;-54
2022/01/10 04:09:53;;;;;;;2.28;1.40;;;;;;;20.38;33.96;98615.44;5108515;28;20499;-54
2022/01/10 04:12:20;;;;;;;2.88;1.67;;;;;;;20.38;34.00;98625.75;5108669;28;20383;-55
2022/01/10 04:14:46;;;;;;;2.25;1.58;;;;;;;20.38;33.94;98628.53;5108031;28;20197;-55
2022/01/10 04:17:13;;;;;;;1.90;1.30;;;;;;;20.38;33.86;98634.88;5108144;28;20134;-54
2022/01/10 04:19:38;;;;;;;2.30;1.73;;;;;;;20.38;34.11;98631.31;5107983;28;20036;-54
2022/01/10 04:22:04;;;;;;;2.20;1.60;;;;;;;20.37;33.98;98626.94;5108215;28;20046;-54
2022/01/10 04:24:30;;;;;;;2.20;1.60;;;;;;;20.35;33.94;98625.31;5107773;28;20408;-53
2022/01/10 04:26:55;;;;;;;2.30;1.67;;;;;;;20.38;34.04;98631.31;5107812;28;20040;-54
2022/01/10 04:29:21;;;;;;;2.33;1.73;;;;;;;20.38;33.79;98625.75;5108158;28;20042;-54
2022/01/10 04:31:46;;;;;;;1.95;1.33;;;;;;;20.36;33.97;98628.91;5108101;28;20403;-54
2022/01/10 04:34:13;;;;;;;2.20;1.40;;;;;;;20.38;33.70;98634.06;5108067;28;20097;-54
2022/01/10 04:36:38;;;;;;;2.05;1.45;;;;;;;20.37;33.87;98640.81;5108125;28;20031;-54
2022/01/10 04:39:04;;;;;;;2.00;1.40;;;;;;;20.37;33.56;98635.25;5109388;28;20065;-54
2022/01/10 04:41:30;;;;;;;2.10;1.50;;;;;;;20.36;33.83;98631.69;5111526;28;20395;-53
2022/01/10 04:43:55;;;;;;;1.90;1.40;;;;;;;20.37;33.81;98629.72;5111540;28;20487;-54
2022/01/10 04:46:21;;;;;;;2.53;1.50;;;;;;;20.36;33.93;98631.69;5111269;28;20411;-54
2022/01/10 04:48:46;;;;;;;2.05;1.50;;;;;;;20.38;33.87;98642.41;5111229;28;20043;-54
2022/01/10 04:51:13;;;;;;;1.95;1.30;;;;;;;20.37;33.86;98630.50;5111238;28;20040;-54
2022/01/10 04:53:41;;;;;;;2.25;1.50;;;;;;;20.35;33.61;98633.66;5111284;28;20388;-54
2022/01/10 04:56:06;;;;;;;2.08;1.40;;;;;;;20.38;33.64;98642.41;5111207;28;20071;-54
2022/01/10 04:58:32;;;;;;;2.00;1.40;;;;;;;20.37;33.81;98651.94;5091375;28;20090;-53
2022/01/10 05:00:58;;;;;;;2.05;1.45;;;;;;;20.37;33.76;98657.47;5111175;28;20511;-54
2022/01/10 05:03:23;;;;;;;1.90;1.33;;;;;;;20.37;33.49;98658.28;5110954;28;20552;-54
2022/01/10 05:05:53;;;;;;;1.98;1.30;;;;;;;20.35;33.71;98655.88;5111065;28;20040;-54
2022/01/10 05:08:19;;;;;;;2.00;1.33;;;;;;;20.36;33.69;98651.13;5110772;28;20130;-54
2022/01/10 05:10:45;;;;;;;2.00;1.35;;;;;;;20.37;33.54;98657.47;5111027;28;20498;-54
2022/01/10 05:13:10;;;;;;;2.13;1.40;;;;;;;20.34;33.64;98654.28;5110922;28;20115;-54
2022/01/10 05:15:36;;;;;;;2.15;1.40;;;;;;;20.37;33.62;98651.94;5110959;28;20040;-54
2022/01/10 05:18:01;;;;;;;2.00;1.27;;;;;;;20.37;33.63;98666.63;5110035;28;20083;-55
2022/01/10 05:20:27;;;;;;;2.03;1.30;;;;;;;20.36;33.54;98676.13;5110376;28;20043;-60
2022/01/10 05:22:52;;;;;;;1.80;1.30;;;;;;;20.36;33.75;98670.56;5110698;28;20077;-60
2022/01/10 05:25:18;;;;;;;1.90;1.23;;;;;;;20.35;33.79;98666.97;5110870;28;20040;-60
2022/01/10 05:27:43;;;;;;;2.10;1.30;;;;;;;20.35;33.52;98677.28;5110708;28;20072;-54
2022/01/10 05:30:09;;;;;;;2.60;1.50;;;;;;;20.34;33.73;98675.69;5110790;28;20070;-54
2022/01/10 05:32:35;;;;;;;2.05;1.30;;;;;;;20.35;33.60;98683.63;5110467;28;20439;-60
2022/01/10 05:35:00;;;;;;;1.90;1.38;;;;;;;20.35;33.72;98682.84;5108240;28;20538;-60
2022/01/10 05:37:25;;;;;;;1.77;1.17;;;;;;;20.35;33.60;98688.41;5110569;28;20120;-54
2022/01/10 05:39:51;;;;;;;1.75;1.10;;;;;;;20.36;33.54;98687.25;5110281;28;20449;-53
2022/01/10 05:42:19;;;;;;;2.47;1.30;;;;;;;20.34;33.62;98684.03;5110360;28;20050;-54
2022/01/10 05:44:44;;;;;;;1.67;1.10;;;;;;;20.37;33.67;98690.81;5110427;28;20139;-60
2022/01/10 05:47:10;;;;;;;2.00;1.30;;;;;;;20.37;33.56;98688.03;5110535;28;20134;-60
2022/01/10 05:49:37;;;;;;;1.30;1.00;;;;;;;20.38;33.67;98695.19;5109446;28;20389;-60
2022/01/10 05:52:04;;;;;;;2.00;1.20;;;;;;;20.39;33.39;98694.00;5109984;28;20062;-60
2022/01/10 05:54:30;;;;;;;1.42;0.90;;;;;;;20.40;33.67;98698.34;5110433;28;20467;-60
2022/01/10 05:56:55;;;;;;;1.30;1.00;;;;;;;20.38;33.46;98701.53;5110382;28;20048;-60
2022/01/10 05:59:21;;;;;;;1.60;1.10;;;;;;;20.41;33.49;98702.72;5109784;28;20035;-60
2022/01/10 06:01:46;;;;;;;1.38;1.00;;;;;;;20.41;33.37;98703.50;5110877;28;20054;-60
2022/01/10 06:04:12;;;;;;;1.40;1.10;;;;;;;20.41;33.50;98708.28;5110343;28;20046;-60
2022/01/10 06:06:37;;;;;;;1.30;0.95;;;;;;;20.43;33.26;98712.28;5109893;28;20050;-60
2022/01/10 06:09:03;;;;;;;1.50;1.10;;;;;;;20.44;33.58;98718.63;5110399;28;20032;-60
2022/01/10 06:11:29;;;;;;;0.98;0.80;;;;;;;20.44;33.37;98725.00;5110506;28;20039;-61
2022/01/10 06:13:54;;;;;;;1.23;0.80;;;;;;;20.44;33.63;98724.19;5108563;28;20118;-60
2022/01/10 06:16:20;;;;;;;2.25;1.05;;;;;;;20.51;33.43;98725.03;5110359;28;20043;-60
2022/01/10 06:18:45;;;;;;;5.78;1.17;;;;;;;20.63;33.27;98718.31;5109819;28;20050;-60
2022/01/10 06:21:10;;;;;;;3.22;0.90;;;;;;;20.87;33.18;98725.19;5110307;28;20392;-60
2022/01/10 06:23:36;;;;;;;1.65;0.80;;;;;;;20.86;32.86;98734.72;5110238;28;20058;-61
2022/01/10 06:26:01;;;;;;;1.65;0.80;;;;;;;20.82;33.01;98734.69;5110139;28;20039;-61
2022/01/10 06:28:27;;;;;;;1.02;0.70;;;;;;;20.79;33.13;98738.28;5110215;28;20042;-60
2022/01/10 06:30:52;;;;;;;1.38;0.95;;;;;;;20.77;33.17;98745.38;5110234;28;20181;-60
2022/01/10 06:33:18;;;;;;;1.80;0.90;;;;;;;20.74;33.25;98758.09;5110093;28;20411;-60
2022/01/10 06:35:43;;;;;;;1.60;0.90;;;;;;;20.73;33.22;98756.50;5110228;28;20062;-60
2022/01/10 06:38:08;;;;;;;1.75;0.90;;;;;;;20.69;33.15;98757.66;5109782;28;20051;-60
2022/01/10 06:40:34;;;;;;;1.17;0.80;;;;;;;20.69;33.28;98766.78;5109332;28;20047;-60
2022/01/10 06:42:59;;;;;;;4.38;0.90;;;;;;;20.69;33.21;98775.13;5109611;28;20126;-60
2022/01/10 06:45:25;;;;;;;1.30;0.90;;;;;;;20.68;33.14;98786.63;5109716;28;20047;-61
2022/01/10 06:47:50;;;;;;;1.15;0.80;;;;;;;20.67;33.19;98787.84;5109532;28;20060;-60
2022/01/10 06:50:16;;;;;;;1.52;0.80;;;;;;;20.66;33.17;98792.59;5109530;28;20040;-60
2022/01/10 06:52:42;;;;;;;1.48;0.88;;;;;;;20.65;33.10;98796.56;5109497;28;20071;-60
2022/01/10 06:55:08;;;;;;;1.23;0.90;;;;;;;20.64;33.25;98800.50;5109557;28;20070;-54
2022/01/10 06:57:34;;;;;;;2.70;0.90;;;;;;;20.64;33.34;98805.25;5109479;28;20448;-54
2022/01/10 07:00:01;;;;;;;2.03;0.90;;;;;;;20.64;33.31;98817.16;5090592;28;20458;-54
2022/01/10 07:02:26;;;;;;;1.35;0.90;;;;;;;20.64;33.25;98816.38;5108981;28;20040;-54
2022/01/10 07:04:52;;;;;;;1.23;0.95;;;;;;;20.65;33.33;98818.00;5108439;28;20078;-54
2022/01/10 07:07:17;;;;;;;1.00;0.80;;;;;;;20.64;33.34;98828.28;5109256;28;20036;-54
2022/01/10 07:09:43;;;;;;;1.42;0.95;;;;;;;20.64;33.08;98831.06;5109030;28;20044;-54
2022/01/10 07:12:08;;;;;;;1.10;0.80;;;;;;;20.64;33.24;98838.59;5109006;28;20040;-54
2022/01/10 07:14:35;;;;;;;1.35;0.80;;;;;;;20.64;33.07;98841.38;5109244;28;20419;-54
2022/01/10 07:17:00;;;;;;;1.83;1.00;;;;;;;20.63;33.12;98851.72;5108838;28;20056;-54
2022/01/10 07:19:26;;;;;;;1.23;0.80;;;;;;;20.63;33.18;98851.72;5108502;28;20126;-54
2022/01/10 07:21:51;;;;;;;1.17;0.82;;;;;;;20.61;33.26;98857.66;5108861;28;20411;-54
2022/01/10 07:24:17;;;;;;;1.20;0.90;;;;;;;20.63;33.24;98853.69;5108949;28;20461;-54
2022/01/10 07:26:43;;;;;;;1.42;0.90;;;;;;;20.61;33.08;98854.88;5108708;28;20127;-54
2022/01/10 07:29:08;;;;;;;1.25;0.95;;;;;;;20.60;33.27;98853.28;5108515;28;20048;-54
2022/01/10 07:31:35;;;;;;;1.50;1.02;;;;;;;20.58;33.31;98855.66;5108847;28;20051;-55
2022/01/10 07:34:02;;;;;;;1.70;1.00;;;;;;;20.61;33.36;98862.41;5108050;28;20048;-56
2022/01/10 07:36:28;;;;;;;1.70;1.00;;;;;;;20.59;33.52;98862.81;5105998;28;20507;-55
2022/01/10 07:38:53;;;;;;;1.73;1.10;;;;;;;20.60;33.38;98871.94;5093564;28;20054;-55
2022/01/10 07:41:19;;;;;;;1.58;1.08;;;;;;;20.60;33.35;98872.75;5087527;28;20521;-55
2022/01/10 07:43:44;;;;;;;2.05;1.00;;;;;;;20.62;33.38;98877.91;5097206;28;20059;-55
2022/01/10 07:46:11;;;;;;;1.50;0.95;;;;;;;20.64;33.51;98889.41;5104149;28;20483;-55
2022/01/10 07:48:40;;;;;;;1.90;1.20;;;;;;;20.64;33.60;98883.88;5088248;28;20081;-54
2022/01/10 07:51:09;;;;;;;1.70;1.02;;;;;;;20.66;33.35;98881.50;5088315;28;20040;-55
2022/01/10 07:53:35;;;;;;;1.38;0.82;;;;;;;20.66;33.58;98886.28;5088550;28;20054;-55
2022/01/10 07:56:01;;;;;;;1.70;1.00;;;;;;;20.66;33.61;98886.28;5088102;28;20071;-55
2022/01/10 07:58:26;;;;;;;1.60;1.00;;;;;;;20.64;33.50;98903.31;5096522;28;20081;-55
2022/01/10 08:00:52;;;;;;;1.83;1.10;;;;;;;20.67;33.73;98899.78;5098610;28;20122;-54
2022/01/10 08:03:17;;;;;;;1.45;1.00;;;;;;;20.70;33.94;98910.13;5094555;28;20155;-54
2022/01/10 08:05:43;;;;;;;1.88;0.88;;;;;;;20.72;33.77;98906.97;5106832;28;20040;-54
2022/01/10 08:08:08;;;;;;;2.72;1.00;;;;;;;20.71;33.66;98917.25;5097367;28;20036;-56
2022/01/10 08:10:34;;;;;;;1.35;1.02;;;;;;;20.73;33.99;98925.22;5090408;28;20408;-49
2022/01/10 08:12:59;;;;;;;5.65;1.30;;;;;;;20.73;33.80;98926.03;5087686;28;20055;-55
2022/01/10 08:15:25;;;;;;;2.58;1.20;;;;;;;20.72;34.25;98927.22;5091530;28;20044;-56
2022/01/10 08:17:50;;;;;;;1.60;1.20;;;;;;;20.74;34.53;98935.97;5098126;28;20051;-56
2022/01/10 08:20:16;;;;;;;2.33;1.20;;;;;;;20.75;34.69;98937.56;5103686;28;20050;-54
2022/01/10 08:22:41;;;;;;;2.38;1.10;;;;;;;20.75;34.82;98945.88;5110648;28;20054;-53
2022/01/10 08:25:07;;;;;;;1.88;1.00;;;;;;;20.76;35.00;98944.69;5095924;28;20047;-49
2022/01/10 08:27:34;;;;;;;2.38;1.00;;;;;;;20.78;35.07;98961.00;5090921;28;20040;-52
2022/01/10 08:29:59;;;;;;;1.85;1.15;;;;;;;20.80;35.03;98953.09;5091175;28;20439;-66
2022/01/10 08:32:25;;;;;;;3.33;0.93;;;;;;;20.81;34.79;98957.44;5092252;28;20044;-74
2022/01/10 08:34:50;;;;;;;3.42;1.08;;;;;;;20.80;34.75;98965.00;5103078;28;20035;-66
2022/01/10 08:37:16;;;;;;;1.27;0.90;;;;;;;20.82;34.87;98967.38;5110533;28;20531;-64
2022/01/10 08:39:41;;;;;;;1.30;0.90;;;;;;;20.84;34.74;98974.13;5109558;28;20040;-66
2022/01/10 08:42:07;;;;;;;0.95;0.68;;;;;;;20.85;34.84;98972.94;5090708;28;20036;-67
2022/01/10 08:44:32;;;;;;;1.52;0.90;;;;;;;20.85;34.64;98977.72;5090845;28;20040;-66
2022/01/10 08:46:57;;;;;;;1.30;0.90;;;;;;;20.85;34.84;98981.28;5090357;28;20150;-67
2022/01/10 08:49:23;;;;;;;1.80;1.10;;;;;;;20.85;34.60;98978.50;5097287;28;20051;-49
2022/01/10 08:51:54;;;;;;;1.60;1.08;;;;;;;20.85;34.90;98978.50;5108630;28;20039;-55
2022/01/10 08:54:22;;;;;;;2.15;0.90;;;;;;;20.85;34.64;98984.06;5110438;28;20035;-46
2022/01/10 08:56:48;;;;;;;2.05;1.10;;;;;;;20.88;34.62;98986.09;5089371;28;20048;-50
2022/01/10 08:59:13;;;;;;;1.90;1.02;;;;;;;20.89;34.61;98990.47;5104330;28;20046;-53
2022/01/10 09:01:39;;;;;;;2.30;1.10;;;;;;;20.88;34.94;98994.44;5110518;28;20051;-48
2022/01/10 09:04:04;;;;;;;2.50;1.20;;;;;;;20.86;34.92;98990.47;5098350;28;20036;-47
2022/01/10 09:06:30;;;;;;;2.85;1.10;;;;;;;20.89;34.85;98993.25;5111387;28;20036;-51
2022/01/10 09:08:55;;;;;;;2.33;1.10;;;;;;;20.89;34.59;98996.03;5100105;28;20105;-52
2022/01/10 09:11:21;;;;;;;1.70;1.00;;;;;;;20.91;34.51;99005.97;5110488;28;20051;-53
2022/01/10 09:13:46;;;;;;;2.53;1.15;;;;;;;20.91;34.67;99008.75;5098410;28;20044;-54
2022/01/10 09:16:14;;;;;;;1.50;0.90;;;;;;;20.91;34.65;99014.31;5104661;28;20036;-48
2022/01/10 09:18:40;;;;;;;1.80;1.05;;;;;;;20.91;34.72;99020.66;5105150;28;20542;-54
2022/01/10 09:21:05;;;;;;;2.30;1.10;;;;;;;20.89;34.41;99012.72;5107887;28;20063;-53
2022/01/10 09:23:31;;;;;;;2.92;1.17;;;;;;;20.91;34.49;99014.31;5106742;28;20044;-48
2022/01/10 09:25:56;;;;;;;4.32;1.20;;;;;;;20.94;34.64;99014.34;5102706;28;20039;-53
2022/01/10 09:28:22;;;;;;;4.30;1.23;;;;;;;21.13;34.45;99021.63;5099605;28;20075;-49
2022/01/10 09:30:47;;;;;;;2.10;1.40;;;;;;;21.50;33.47;99021.47;5100382;28;20143;-47
2022/01/10 09:33:13;;;;;;;2.15;1.20;;;;;;;21.65;33.54;99025.19;5108163;28;20439;-48
2022/01/10 09:35:40;;;;;;;2.80;1.10;;;;;;;21.78;33.21;99022.81;5109059;28;20074;-51
2022/01/10 09:38:06;;;;;;;2.17;1.15;;;;;;;21.89;32.84;99013.34;5100255;28;20048;-47
2022/01/10 09:40:32;;;;;;;2.08;1.20;;;;;;;21.95;32.91;99022.13;5095313;28;20415;-49
2022/01/10 09:42:58;;;;;;;2.47;1.35;;;;;;;22.04;32.74;99024.53;5100797;28;20082;-50
2022/01/10 09:45:23;;;;;;;3.30;1.20;;;;;;;22.06;32.75;99022.13;5103873;28;20043;-49
2022/01/10 09:47:49;;;;;;;2.60;1.30;;;;;;;22.07;32.70;99034.88;5091547;28;20725;-53
2022/01/10 09:50:16;;;;;;;1.48;1.00;;;;;;;22.17;32.77;99042.53;5108058;28;20036;-51
2022/01/10 09:52:43;;;;;;;1.50;1.00;;;;;;;22.25;32.46;99052.50;5102150;28;20044;-45
2022/01/10 09:55:09;;;;;;;1.95;1.02;;;;;;;22.28;32.57;99059.25;5109466;28;20542;-49
2022/01/10 09:57:35;;;;;;;1.90;1.10;;;;;;;22.33;32.52;99047.72;5107703;28;20035;-45
2022/01/10 10:00:00;;;;;;;2.05;1.10;;;;;;;22.43;32.20;99056.13;5091643;28;20054;-45
2022/01/10 10:02:33;;;;;;;2.08;1.13;;;;;;;22.44;32.18;99062.50;5097098;28;20453;-46
2022/01/10 10:05:05;;;;;;;1.33;0.85;;;;;;;22.42;32.09;99065.66;5109206;28;20036;-46
2022/01/10 10:07:31;;;;;;;1.70;1.00;;;;;;;22.57;31.95;99066.50;5094320;28;20430;-47
2022/01/10 10:10:07;;;;;;;1.48;0.90;;;;;;;22.66;31.72;99060.56;5101599;28;20468;-47
2022/01/10 10:12:33;;;;;;;1.27;0.88;;;;;;;22.69;31.71;99059.75;5094290;28;20056;-45
2022/01/10 10:15:06;;;;;;;1.27;0.80;;;;;;;22.77;31.58;99066.94;5089548;28;20623;-67
2022/01/10 10:17:32;;;;;;;1.42;0.90;;;;;;;22.84;31.30;99074.50;5098095;28;20147;-71
2022/01/10 10:19:58;;;;;;;1.63;0.90;;;;;;;22.86;31.46;99072.13;5100382;28;20081;-69
2022/01/10 10:22:24;;;;;;;1.13;0.73;;;;;;;22.93;31.44;99084.13;5103661;28;20048;-66
2022/01/10 10:24:50;;;;;;;1.25;0.70;;;;;;;22.98;31.03;99083.72;5108106;28;20043;-62
2022/01/10 10:27:17;;;;;;;1.38;0.93;;;;;;;22.97;31.12;99084.91;5095344;28;20066;-64
2022/01/10 10:29:43;;;;;;;1.88;1.13;;;;;;;23.04;30.97;99079.34;5088710;28;20048;-64
2022/01/10 10:32:09;;;;;;;1.35;0.90;;;;;;;23.15;30.91;99086.94;5104576;28;20047;-70
2022/01/10 10:34:35;;;;;;;1.95;1.00;;;;;;;23.16;30.82;99086.53;5087728;28;20074;-60
2022/01/10 10:37:09;;;;;;;3.30;0.80;;;;;;;23.08;30.99;99092.50;5089781;28;20052;-66
2022/01/10 10:39:38;;;;;;;1.98;1.13;;;;;;;23.16;31.06;99086.53;5092245;28;20093;-68
2022/01/10 10:42:07;;;;;;;2.70;1.30;;;;;;;23.22;30.69;99092.50;5104538;28;20043;-67
2022/01/10 10:44:33;;;;;;;6.30;1.25;;;;;;;23.27;30.88;99089.28;5089393;28;20591;-65
2022/01/10 10:46:59;;;;;;;2.40;0.98;;;;;;;23.28;30.64;99093.69;5101598;28;20043;-72
2022/01/10 10:49:31;;;;;;;2.17;1.00;;;;;;;23.36;30.51;99095.28;5107183;28;20048;-64
2022/01/10 10:51:59;;;;;;;4.18;1.20;;;;;;;23.09;30.59;99094.09;5091531;28;20063;-61
2022/01/10 10:54:24;;;;;;;2.20;1.27;;;;;;;22.91;31.00;99099.66;5102745;28;20086;-68
2022/01/10 10:56:50;;;;;;;1.90;1.00;;;;;;;22.73;31.34;99105.19;5096888;28;20039;-64
2022/01/10 10:59:15;;;;;;;1.63;0.98;;;;;;;22.60;31.51;99101.97;5094832;28;20082;-63
2022/01/10 11:01:42;;;;;;;1.40;0.90;;;;;;;22.48;31.88;99100.31;5099006;28;20400;-63
2022/01/10 11:04:10;;;;;;;1.67;1.05;;;;;;;22.36;32.24;99099.88;5098216;28;20031;-65
2022/01/10 11:06:36;;;;;;;1.27;0.73;;;;;;;22.27;32.43;99100.25;5100957;28;20530;-69
2022/01/10 11:09:06;;;;;;;1.20;0.85;;;;;;;22.19;32.20;99101.41;5097381;28;20905;-71
2022/01/10 11:11:32;;;;;;;1.63;1.00;;;;;;;22.09;32.44;99105.75;5097502;28;20044;-70
2022/01/10 11:14:00;;;;;;;1.85;1.00;;;;;;;22.01;32.56;99098.53;5105859;28;20099;-68
2022/01/10 11:16:26;;;;;;;1.52;0.90;;;;;;;21.95;32.46;99102.88;5094048;28;20507;-47
2022/01/10 11:18:52;;;;;;;1.63;1.00;;;;;;;21.88;32.70;99106.41;5098614;28;20055;-69
2022/01/10 11:21:17;;;;;;;2.55;1.08;;;;;;;21.84;32.70;99105.59;5101494;28;20048;-70
2022/01/10 11:23:48;;;;;;;1.77;1.00;;;;;;;21.77;32.76;99108.31;5105776;28;20047;-71
2022/01/10 11:26:15;;;;;;;1.50;1.00;;;;;;;21.74;32.88;99105.53;5095647;28;20511;-70
2022/01/10 11:28:55;;;;;;;1.20;0.80;;;;;;;21.67;32.74;99114.66;5096629;28;20068;-70
2022/01/10 11:31:27;;;;;;;1.60;0.98;;;;;;;21.61;32.64;99107.84;5102734;28;20538;-70
2022/01/10 11:33:54;;;;;;;1.67;1.02;;;;;;;21.58;32.69;99117.78;5091170;28;20670;-71
2022/01/10 11:36:23;;;;;;;1.13;0.80;;;;;;;21.55;32.98;99115.75;5103633;28;20503;-71
2022/01/10 11:38:53;;;;;;;1.33;0.95;;;;;;;21.48;32.84;99109.34;5095644;28;20058;-70